Time;durP1;ratioP1;P1;durP2;ratioP2;P2;SDS_P1;SDS_P2;PMS_P1;PMS_P2;Temp;Humidity;BMP_temperature;BMP_pressure;BME280_temperature;BME280_humidity;BME280_pressure;Samples;Min_cycle;Max_cycle;Signal;HPM_P1;HPM_P2
2022/06/12 00:01:36;;;;;;;7.00;2.67;;;;;;;;;;4834439;29;20418;-71
2022/06/12 00:04:07;;;;;;;5.85;3.35;;;;;;;;;;4843642;29;20062;-71
2022/06/12 00:06:37;;;;;;;6.70;3.40;;;;;;;;;;4859514;29;20058;-72
2022/06/12 00:09:08;;;;;;;7.82;3.05;;;;;;;;;;4858927;29;20058;-70
2022/06/12 00:11:41;;;;;;;7.47;2.72;;;;;;;;;;4856849;29;20054;-70
2022/06/12 00:14:14;;;;;;;8.95;3.67;;;;;;;;;;4858804;29;20069;-69
2022/06/12 00:16:46;;;;;;;8.10;3.72;;;;;;;;;;4858913;29;20068;-70
2022/06/12 00:19:16;;;;;;;7.32;2.95;;;;;;;;;;4817987;29;20085;-69
2022/06/12 00:21:47;;;;;;;12.73;3.53;;;;;;;;;;4818166;29;20061;-70
2022/06/12 00:24:20;;;;;;;10.40;4.72;;;;;;;;;;4776274;29;20071;-69
2022/06/12 00:26:54;;;;;;;7.30;4.25;;;;;;;;;;4804147;29;20066;-69
2022/06/12 00:29:29;;;;;;;8.45;3.33;;;;;;;;;;4764143;29;20058;-70
2022/06/12 00:32:08;;;;;;;10.60;3.63;;;;;;;;;;4804492;29;20561;-69
2022/06/12 00:34:41;;;;;;;;;;;;;;;;;;4804389;29;20424;-69
2022/06/12 00:37:12;;;;;;;8.43;3.78;;;;;;;;;;4829012;29;19925;-68
2022/06/12 00:39:42;;;;;;;8.07;4.03;;;;;;;;;;4840024;29;20065;-68
2022/06/12 00:42:27;;;;;;;6.82;3.38;;;;;;;;;;4840055;29;20058;-69
2022/06/12 00:44:59;;;;;;;6.63;3.47;;;;;;;;;;4839983;29;20058;-70
2022/06/12 00:47:29;;;;;;;7.10;3.42;;;;;;;;;;4840173;29;20054;-68
2022/06/12 00:50:09;;;;;;;14.85;4.03;;;;;;;;;;4825274;29;20061;-69
2022/06/12 00:52:48;;;;;;;9.75;4.13;;;;;;;;;;4839879;29;20050;-68
2022/06/12 00:55:24;;;;;;;7.75;3.65;;;;;;;;;;4818294;29;20051;-69
2022/06/12 00:58:16;;;;;;;9.85;3.75;;;;;;;;;;4803501;29;20067;-69
2022/06/12 01:00:47;;;;;;;8.65;3.53;;;;;;;;;;4821859;29;20066;-69
2022/06/12 01:03:19;;;;;;;6.68;3.38;;;;;;;;;;4821754;29;20075;-69
2022/06/12 01:08:40;;;;;;;10.80;4.10;;;;;;;;;;4821513;29;20065;-68
2022/06/12 01:11:15;;;;;;;10.55;3.35;;;;;;;;;;4821390;29;20054;-68
2022/06/12 01:13:46;;;;;;;8.77;3.63;;;;;;;;;;4792548;29;20065;-68
2022/06/12 01:16:20;;;;;;;6.90;3.40;;;;;;;;;;4791086;29;20063;-68
2022/06/12 01:18:55;;;;;;;7.05;3.40;;;;;;;;;;4804705;29;20072;-69
2022/06/12 01:21:51;;;;;;;10.73;4.10;;;;;;;;;;4788008;29;20534;-69
2022/06/12 01:24:39;;;;;;;7.80;3.75;;;;;;;;;;4803078;29;20058;-69
2022/06/12 01:27:36;;;;;;;9.57;3.55;;;;;;;;;;4803155;29;20069;-70
2022/06/12 01:30:17;;;;;;;9.02;3.33;;;;;;;;;;4772912;29;20066;-69
2022/06/12 01:33:13;;;;;;;9.68;4.05;;;;;;;;;;4795137;29;20066;-69
2022/06/12 01:36:04;;;;;;;8.65;3.88;;;;;;;;;;4740667;30;20063;-69
2022/06/12 01:39:03;;;;;;;8.48;4.38;;;;;;;;;;4784775;30;20586;-69
2022/06/12 01:41:52;;;;;;;8.32;3.97;;;;;;;;;;4749089;30;20540;-69
2022/06/12 01:44:44;;;;;;;6.55;2.92;;;;;;;;;;4748775;30;20421;-68
2022/06/12 01:47:27;;;;;;;10.30;3.97;;;;;;;;;;4784718;30;20060;-68
2022/06/12 01:50:12;;;;;;;9.38;3.85;;;;;;;;;;4754892;30;20055;-68
2022/06/12 01:52:45;;;;;;;;;;;;;;;;;;4785220;30;20060;-69
2022/06/12 01:55:31;;;;;;;10.30;3.22;;;;;;;;;;4784685;30;20314;-68
2022/06/12 01:58:23;;;;;;;8.77;4.13;;;;;;;;;;4785707;29;20067;-71
2022/06/12 02:01:24;;;;;;;10.48;4.88;;;;;;;;;;4787464;29;20055;-69
2022/06/12 02:04:13;;;;;;;12.10;5.25;;;;;;;;;;4802495;29;20050;-70
2022/06/12 02:06:51;;;;;;;12.68;5.28;;;;;;;;;;4802402;29;20512;-66
2022/06/12 02:09:36;;;;;;;9.77;4.78;;;;;;;;;;4802698;29;20062;-69
2022/06/12 02:15:15;;;;;;;8.82;4.68;;;;;;;;;;4802749;29;20054;-69
2022/06/12 02:17:52;;;;;;;10.35;6.15;;;;;;;;;;4825068;29;20068;-68
2022/06/12 02:20:27;;;;;;;12.43;5.40;;;;;;;;;;4875447;29;20092;-69
2022/06/12 02:22:59;;;;;;;9.43;5.57;;;;;;;;;;4875727;29;20064;-70
2022/06/12 02:25:34;;;;;;;9.68;4.50;;;;;;;;;;4875459;29;20053;-69
2022/06/12 02:28:15;;;;;;;13.18;5.40;;;;;;;;;;4875814;29;20053;-69
2022/06/12 02:30:51;;;;;;;8.57;4.22;;;;;;;;;;4875181;29;20131;-69
2022/06/12 02:33:26;;;;;;;11.07;4.65;;;;;;;;;;4845539;29;20083;-70
2022/06/12 02:36:32;;;;;;;9.13;3.80;;;;;;;;;;4845475;29;20061;-70
2022/06/12 02:39:26;;;;;;;6.55;3.20;;;;;;;;;;4802012;29;20059;-70
2022/06/12 02:42:16;;;;;;;8.73;3.50;;;;;;;;;;4802153;29;20055;-69
2022/06/12 02:45:25;;;;;;;6.75;3.85;;;;;;;;;;4789838;29;20056;-70
2022/06/12 02:47:56;;;;;;;8.60;2.80;;;;;;;;;;4766284;30;20416;-69
2022/06/12 02:50:32;;;;;;;9.13;4.03;;;;;;;;;;4708040;30;20056;-69
2022/06/12 02:53:48;;;;;;;7.10;3.55;;;;;;;;;;4734419;30;20056;-70
2022/06/12 02:56:46;;;;;;;8.45;3.80;;;;;;;;;;4678748;30;20081;-69
2022/06/12 02:59:27;;;;;;;8.35;3.85;;;;;;;;;;4664876;30;20070;-69
2022/06/12 03:02:16;;;;;;;9.43;3.88;;;;;;;;;;4678710;30;20071;-68
2022/06/12 03:04:53;;;;;;;7.85;4.20;;;;;;;;;;4665064;30;20062;-69
2022/06/12 03:07:24;;;;;;;9.43;4.50;;;;;;;;;;4664987;30;20129;-70
2022/06/12 03:09:54;;;;;;;9.95;3.70;;;;;;;;;;4664900;30;20066;-70
2022/06/12 03:12:27;;;;;;;7.65;3.65;;;;;;;;;;4664640;30;20069;-70
2022/06/12 03:14:59;;;;;;;8.63;2.92;;;;;;;;;;4666584;30;20408;-71
2022/06/12 03:17:30;;;;;;;8.95;3.55;;;;;;;;;;4681650;30;20064;-70
2022/06/12 03:20:00;;;;;;;11.38;3.72;;;;;;;;;;4681972;30;20061;-71
2022/06/12 03:22:30;;;;;;;7.60;3.60;;;;;;;;;;4667577;30;20089;-71
2022/06/12 03:25:18;;;;;;;8.13;3.78;;;;;;;;;;4735849;30;20072;-73
2022/06/12 03:28:04;;;;;;;13.82;3.40;;;;;;;;;;4733787;30;20513;-70
2022/06/12 03:30:40;;;;;;;7.97;3.28;;;;;;;;;;4749600;30;20063;-70
2022/06/12 03:33:35;;;;;;;6.72;3.50;;;;;;;;;;4797382;29;20050;-71
2022/06/12 03:36:22;;;;;;;10.48;3.53;;;;;;;;;;4808513;29;20058;-72
2022/06/12 03:39:01;;;;;;;8.65;3.58;;;;;;;;;;4822900;29;20059;-70
2022/06/12 03:41:33;;;;;;;;;;;;;;;;;;4823263;29;20066;-70
2022/06/12 03:44:10;;;;;;;8.02;3.47;;;;;;;;;;4822963;29;19924;-71
2022/06/12 03:46:56;;;;;;;8.77;3.25;;;;;;;;;;4807555;29;20058;-70
2022/06/12 03:49:30;;;;;;;9.90;2.97;;;;;;;;;;4807592;29;20057;-72
2022/06/12 03:52:26;;;;;;;7.03;3.17;;;;;;;;;;4807544;29;20055;-70
2022/06/12 03:57:50;;;;;;;6.28;3.55;;;;;;;;;;4754271;30;20060;-70
2022/06/12 03:58:18;;;;;;;5.50;2.97;;;;;;;;;;4765056;30;20575;-71
2022/06/12 04:00:52;;;;;;;7.07;3.42;;;;;;;;;;4736918;30;20072;-70
2022/06/12 04:03:31;;;;;;;7.45;3.85;;;;;;;;;;4750509;30;20048;-69
2022/06/12 04:06:06;;;;;;;8.05;3.25;;;;;;;;;;4750985;30;20068;-72
2022/06/12 04:08:45;;;;;;;7.55;3.38;;;;;;;;;;4750495;30;20060;-70
2022/06/12 04:11:20;;;;;;;11.27;3.60;;;;;;;;;;4774882;30;20059;-70
2022/06/12 04:13:51;;;;;;;6.13;3.03;;;;;;;;;;4786472;30;20067;-70
2022/06/12 04:16:39;;;;;;;8.65;3.47;;;;;;;;;;4771206;30;20063;-70
2022/06/12 04:19:16;;;;;;;5.68;3.25;;;;;;;;;;4786139;30;20055;-71
2022/06/12 04:21:56;;;;;;;8.32;2.83;;;;;;;;;;4786118;30;20074;-71
2022/06/12 04:24:35;;;;;;;5.82;3.38;;;;;;;;;;4786235;30;20059;-71
2022/06/12 04:27:16;;;;;;;7.50;3.70;;;;;;;;;;4786070;30;20058;-69
2022/06/12 04:29:53;;;;;;;8.88;4.07;;;;;;;;;;4786139;30;20056;-70
2022/06/12 04:32:26;;;;;;;7.18;3.03;;;;;;;;;;4785932;30;20505;-69
2022/06/12 04:34:56;;;;;;;9.80;3.05;;;;;;;;;;4770929;30;20420;-69
2022/06/12 04:37:30;;;;;;;7.03;3.47;;;;;;;;;;4785942;30;20064;-69
2022/06/12 04:40:04;;;;;;;8.23;5.03;;;;;;;;;;4789252;29;20051;-68
2022/06/12 04:42:35;;;;;;;8.65;3.50;;;;;;;;;;4822122;29;20054;-69
2022/06/12 04:45:06;;;;;;;8.70;3.67;;;;;;;;;;4807195;29;20062;-68
2022/06/12 04:47:36;;;;;;;5.05;3.08;;;;;;;;;;4822191;29;20054;-69
2022/06/12 04:50:09;;;;;;;6.90;3.03;;;;;;;;;;4821840;29;20455;-68
2022/06/12 04:52:40;;;;;;;7.13;3.30;;;;;;;;;;4821782;29;20519;-69
2022/06/12 04:55:10;;;;;;;7.20;2.92;;;;;;;;;;4821964;29;20419;-69
2022/06/12 04:57:40;;;;;;;8.25;3.60;;;;;;;;;;4853780;29;20062;-69
2022/06/12 05:00:12;;;;;;;5.47;3.08;;;;;;;;;;4857744;29;20057;-69
2022/06/12 05:02:43;;;;;;;6.30;3.00;;;;;;;;;;4843160;29;20092;-68
2022/06/12 05:05:13;;;;;;;12.80;4.30;;;;;;;;;;4858523;29;20065;-69
2022/06/12 05:07:43;;;;;;;7.72;2.50;;;;;;;;;;4812665;29;20434;-69
2022/06/12 05:10:15;;;;;;;5.93;3.72;;;;;;;;;;4858317;29;20049;-68
2022/06/12 05:12:46;;;;;;;8.38;3.05;;;;;;;;;;4839435;29;20050;-69
2022/06/12 05:15:17;;;;;;;4.50;2.78;;;;;;;;;;4839600;29;20065;-69
2022/06/12 05:17:48;;;;;;;6.10;3.03;;;;;;;;;;4857938;29;20053;-69
2022/06/12 05:20:23;;;;;;;6.35;2.72;;;;;;;;;;4838683;29;20069;-66
2022/06/12 05:22:54;;;;;;;9.00;4.30;;;;;;;;;;4839396;29;20062;-69
2022/06/12 05:25:25;;;;;;;5.97;3.38;;;;;;;;;;4839572;29;20153;-69
2022/06/12 05:27:55;;;;;;;6.85;3.95;;;;;;;;;;4809026;29;20717;-69
2022/06/12 05:30:29;;;;;;;7.35;3.45;;;;;;;;;;4809139;29;20525;-69
2022/06/12 05:33:01;;;;;;;6.15;3.05;;;;;;;;;;4809228;29;20046;-69
2022/06/12 05:35:34;;;;;;;10.35;3.80;;;;;;;;;;4839301;29;20066;-69
2022/06/12 05:38:06;;;;;;;7.10;3.22;;;;;;;;;;4839190;29;20117;-69
2022/06/12 05:40:40;;;;;;;8.02;2.50;;;;;;;;;;4839412;29;20518;-69
2022/06/12 05:43:11;;;;;;;5.65;2.60;;;;;;;;;;4839283;29;20054;-70
2022/06/12 05:45:41;;;;;;;7.57;2.50;;;;;;;;;;4824400;29;20058;-69
2022/06/12 05:48:18;;;;;;;6.10;2.42;;;;;;;;;;4820798;29;20054;-70
2022/06/12 05:50:55;;;;;;;8.60;3.30;;;;;;;;;;4820931;29;20051;-69
2022/06/12 05:53:28;;;;;;;14.25;2.67;;;;;;;;;;4806772;29;20066;-69
2022/06/12 05:55:59;;;;;;;6.50;3.10;;;;;;;;;;4803685;29;20057;-69
2022/06/12 05:58:30;;;;;;;8.25;2.63;;;;;;;;;;4840822;29;20438;-70
2022/06/12 06:01:00;;;;;;;7.72;3.13;;;;;;;;;;4826860;29;20064;-69
2022/06/12 06:03:32;;;;;;;6.72;3.22;;;;;;;;;;4827204;29;20077;-69
2022/06/12 06:06:05;;;;;;;6.63;2.63;;;;;;;;;;4857408;29;20062;-70
2022/06/12 06:08:36;;;;;;;7.32;3.08;;;;;;;;;;4857481;29;20057;-69
2022/06/12 06:11:07;;;;;;;5.82;1.75;;;;;;;;;;4857090;29;20413;-69
2022/06/12 06:13:38;;;;;;;8.43;3.35;;;;;;;;;;4857307;29;20101;-69
2022/06/12 06:16:09;;;;;;;8.10;3.67;;;;;;;;;;4838679;29;20076;-70
2022/06/12 06:18:40;;;;;;;6.88;2.83;;;;;;;;;;4820378;29;20139;-69
2022/06/12 06:21:12;;;;;;;4.90;2.58;;;;;;;;;;4820574;29;20062;-69
2022/06/12 06:23:49;;;;;;;6.82;3.33;;;;;;;;;;4802049;29;20054;-68
2022/06/12 06:26:20;;;;;;;8.60;3.50;;;;;;;;;;4776676;29;20052;-68
2022/06/12 06:28:52;;;;;;;8.85;4.30;;;;;;;;;;4766470;30;20059;-69
2022/06/12 06:31:23;;;;;;;7.05;2.75;;;;;;;;;;4767941;30;20405;-68
2022/06/12 06:33:54;;;;;;;10.50;4.28;;;;;;;;;;4769951;30;20063;-68
2022/06/12 06:36:25;;;;;;;7.45;4.63;;;;;;;;;;4770060;30;20068;-69
2022/06/12 06:38:57;;;;;;;12.15;4.05;;;;;;;;;;4787589;29;20074;-68
2022/06/12 06:41:27;;;;;;;7.93;3.13;;;;;;;;;;4757924;29;20420;-68
2022/06/12 06:46:47;;;;;;;6.75;3.22;;;;;;;;;;4751802;30;20847;-68
2022/06/12 06:49:22;;;;;;;5.93;3.47;;;;;;;;;;4682484;30;20106;-68
2022/06/12 06:51:52;;;;;;;8.77;3.47;;;;;;;;;;4716894;30;20060;-68
2022/06/12 06:54:25;;;;;;;5.82;2.88;;;;;;;;;;4728801;30;20068;-68
2022/06/12 06:56:56;;;;;;;5.38;2.72;;;;;;;;;;4782520;29;20078;-68
2022/06/12 06:59:27;;;;;;;3.67;2.15;;;;;;;;;;4769565;30;20068;-69
2022/06/12 07:01:57;;;;;;;5.43;2.25;;;;;;;;;;4769303;30;20064;-69
2022/06/12 07:04:28;;;;;;;5.35;2.13;;;;;;;;;;4774821;30;20078;-68
2022/06/12 07:06:58;;;;;;;5.80;2.58;;;;;;;;;;4754481;30;20063;-68
2022/06/12 07:09:29;;;;;;;5.38;2.55;;;;;;;;;;4786950;29;20059;-68
2022/06/12 07:11:59;;;;;;;7.03;2.55;;;;;;;;;;4757474;29;20063;-68
2022/06/12 07:14:29;;;;;;;4.85;2.40;;;;;;;;;;4743216;30;21202;-68
2022/06/12 07:17:00;;;;;;;6.50;2.30;;;;;;;;;;4775039;29;20539;-68
2022/06/12 07:19:32;;;;;;;5.40;2.40;;;;;;;;;;4786980;29;20062;-68
2022/06/12 07:22:03;;;;;;;3.72;2.20;;;;;;;;;;4786933;29;20066;-68
2022/06/12 07:24:34;;;;;;;4.78;1.75;;;;;;;;;;4797107;29;20424;-71
2022/06/12 07:27:06;;;;;;;6.63;2.55;;;;;;;;;;4823207;29;20059;-69
2022/06/12 07:29:37;;;;;;;4.80;1.98;;;;;;;;;;4825109;29;20063;-69
2022/06/12 07:32:07;;;;;;;4.65;2.10;;;;;;;;;;4841274;29;20073;-69
2022/06/12 07:34:37;;;;;;;5.30;2.20;;;;;;;;;;4832073;29;20075;-69
2022/06/12 07:37:08;;;;;;;4.63;2.28;;;;;;;;;;4823067;29;20535;-69
2022/06/12 07:39:40;;;;;;;5.35;2.30;;;;;;;;;;4831683;29;20567;-70
2022/06/12 07:42:10;;;;;;;5.18;2.53;;;;;;;;;;4831945;29;20573;-69
2022/06/12 07:44:40;;;;;;;6.50;1.92;;;;;;;;;;4841363;29;20499;-69
2022/06/12 07:47:11;;;;;;;4.35;2.80;;;;;;;;;;4826126;29;20065;-69
2022/06/12 07:49:41;;;;;;;5.72;3.28;;;;;;;;;;4841022;29;20061;-69
2022/06/12 07:52:13;;;;;;;5.65;2.45;;;;;;;;;;4841105;29;20058;-69
2022/06/12 07:54:45;;;;;;;6.47;2.53;;;;;;;;;;4841492;29;20057;-69
2022/06/12 07:57:15;;;;;;;5.25;2.33;;;;;;;;;;4851238;29;20073;-68
2022/06/12 07:59:46;;;;;;;7.97;3.78;;;;;;;;;;4873812;29;20066;-68
2022/06/12 08:02:16;;;;;;;7.85;3.60;;;;;;;;;;4880163;29;20045;-69
2022/06/12 08:04:47;;;;;;;4.38;2.42;;;;;;;;;;4862688;29;20631;-70
2022/06/12 08:07:17;;;;;;;6.13;3.58;;;;;;;;;;4862057;29;20060;-68
2022/06/12 08:09:47;;;;;;;9.73;3.53;;;;;;;;;;4862283;29;20049;-68
2022/06/12 08:12:17;;;;;;;6.18;3.45;;;;;;;;;;4846939;29;20069;-68
2022/06/12 08:14:47;;;;;;;10.80;3.92;;;;;;;;;;4877872;29;20049;-68
2022/06/12 08:17:18;;;;;;;7.68;3.53;;;;;;;;;;4877828;29;20064;-69
2022/06/12 08:22:37;;;;;;;4.97;1.77;;;;;;;;;;4877611;29;20085;-69
2022/06/12 08:25:07;;;;;;;6.15;2.83;;;;;;;;;;4825534;29;20054;-68
2022/06/12 08:27:38;;;;;;;8.35;3.72;;;;;;;;;;4858861;29;20068;-70
2022/06/12 08:30:09;;;;;;;5.78;2.97;;;;;;;;;;4828229;29;20172;-69
2022/06/12 08:32:42;;;;;;;7.25;2.83;;;;;;;;;;4858545;29;20069;-68
2022/06/12 08:35:21;;;;;;;5.25;2.00;;;;;;;;;;4821659;29;20419;-69
2022/06/12 08:37:53;;;;;;;4.90;2.65;;;;;;;;;;4821997;29;20085;-68
2022/06/12 08:40:42;;;;;;;5.65;3.53;;;;;;;;;;4784960;29;20068;-69
2022/06/12 08:43:16;;;;;;;8.50;2.92;;;;;;;;;;4770775;29;20067;-69
2022/06/12 08:45:49;;;;;;;4.47;2.40;;;;;;;;;;4767757;30;20067;-68
2022/06/12 08:48:51;;;;;;;4.95;2.58;;;;;;;;;;4767921;30;20080;-68
2022/06/12 08:51:28;;;;;;;5.38;1.75;;;;;;;;;;4781698;29;20417;-68
2022/06/12 08:54:07;;;;;;;3.72;1.95;;;;;;;;;;4766859;30;20060;-68
2022/06/12 08:57:14;;;;;;;8.23;3.10;;;;;;;;;;4758648;29;20063;-68
2022/06/12 09:00:08;;;;;;;8.55;2.42;;;;;;;;;;4803051;29;20423;-69
2022/06/12 09:02:43;;;;;;;5.93;2.60;;;;;;;;;;4795344;29;20056;-68
2022/06/12 09:05:20;;;;;;;3.58;1.80;;;;;;;;;;4764583;29;20065;-68
2022/06/12 09:08:33;;;;;;;2.83;1.77;;;;;;;;;;4803554;29;20066;-69
2022/06/12 09:11:30;;;;;;;5.38;2.00;;;;;;;;;;4773280;29;20059;-68
2022/06/12 09:14:24;;;;;;;5.40;2.45;;;;;;;;;;4838914;29;20061;-69
2022/06/12 09:17:21;;;;;;;4.50;2.08;;;;;;;;;;4839363;29;20637;-69
2022/06/12 09:20:20;;;;;;;4.22;1.73;;;;;;;;;;4841103;29;20066;-68
2022/06/12 09:23:25;;;;;;;5.95;2.47;;;;;;;;;;4839233;29;20062;-68
2022/06/12 09:26:09;;;;;;;4.85;2.60;;;;;;;;;;4767258;30;20067;-68
2022/06/12 09:29:05;;;;;;;5.15;2.47;;;;;;;;;;4767293;30;20476;-68
2022/06/12 09:31:55;;;;;;;5.10;2.53;;;;;;;;;;4784714;30;20062;-68
2022/06/12 09:34:48;;;;;;;5.20;2.10;;;;;;;;;;4750990;30;20064;-68
2022/06/12 09:40:38;;;;;;;6.35;1.90;;;;;;;;;;4749388;30;20433;-68
2022/06/12 09:43:39;;;;;;;4.80;2.60;;;;;;;;;;4749272;30;20627;-68
2022/06/12 09:46:26;;;;;;;5.50;2.42;;;;;;;;;;4749225;30;20052;-68
2022/06/12 09:49:07;;;;;;;6.53;3.10;;;;;;;;;;4748691;30;20067;-69
2022/06/12 09:52:22;;;;;;;6.78;2.70;;;;;;;;;;4749339;30;20068;-69
2022/06/12 09:55:02;;;;;;;7.43;3.50;;;;;;;;;;4742420;30;20068;-69
2022/06/12 09:57:47;;;;;;;4.13;2.13;;;;;;;;;;4749246;30;20067;-69
2022/06/12 10:00:21;;;;;;;5.57;2.88;;;;;;;;;;4742120;30;20072;-70
2022/06/12 10:03:20;;;;;;;6.80;2.28;;;;;;;;;;4784674;29;20058;-68
2022/06/12 10:06:03;;;;;;;3.53;1.58;;;;;;;;;;4772592;29;20439;-69
2022/06/12 10:08:40;;;;;;;4.57;2.40;;;;;;;;;;4772515;29;20070;-68
2022/06/12 10:11:31;;;;;;;9.30;3.22;;;;;;;;;;4817414;29;20073;-68
2022/06/12 10:14:09;;;;;;;5.20;2.50;;;;;;;;;;4802864;29;20059;-69
2022/06/12 10:17:00;;;;;;;8.00;2.72;;;;;;;;;;4766113;30;20047;-66
2022/06/12 10:20:00;;;;;;;5.68;3.10;;;;;;;;;;4766575;30;20135;-67
2022/06/12 10:22:38;;;;;;;9.13;3.08;;;;;;;;;;4765453;30;20091;-67
2022/06/12 10:25:28;;;;;;;6.93;2.53;;;;;;;;;;4782097;29;20103;-67
2022/06/12 10:28:01;;;;;;;5.18;2.38;;;;;;;;;;4820806;29;20054;-67
2022/06/12 10:30:31;;;;;;;5.82;2.40;;;;;;;;;;4805622;29;20062;-67
2022/06/12 10:33:23;;;;;;;4.93;2.97;;;;;;;;;;4820624;29;20054;-67
2022/06/12 10:36:01;;;;;;;5.93;2.85;;;;;;;;;;4777186;29;20066;-67
2022/06/12 10:38:34;;;;;;;7.65;2.80;;;;;;;;;;4761782;29;20062;-67
2022/06/12 10:41:22;;;;;;;6.53;3.45;;;;;;;;;;4820579;29;20069;-67
2022/06/12 10:43:56;;;;;;;11.75;4.63;;;;;;;;;;4820658;29;20526;-68
2022/06/12 10:46:30;;;;;;;21.55;7.43;;;;;;;;;;4802236;29;20059;-66
2022/06/12 10:49:01;;;;;;;128.30;44.33;;;;;;;;;;4802062;29;20152;-67
2022/06/12 10:51:41;;;;;;;147.50;57.58;;;;;;;;;;4814109;29;21140;-66
2022/06/12 10:54:22;;;;;;;140.77;61.28;;;;;;;;;;4855134;29;20049;-67
2022/06/12 10:57:28;;;;;;;116.78;48.83;;;;;;;;;;4829355;29;20065;-67
2022/06/12 11:00:09;;;;;;;87.03;38.40;;;;;;;;;;4875264;29;20076;-67
2022/06/12 11:03:12;;;;;;;64.40;28.20;;;;;;;;;;4861254;29;20052;-67
2022/06/12 11:05:46;;;;;;;31.02;13.98;;;;;;;;;;4875411;29;20061;-67
2022/06/12 11:08:42;;;;;;;26.73;10.77;;;;;;;;;;4859619;29;20044;-67
2022/06/12 11:11:28;;;;;;;24.90;9.93;;;;;;;;;;4875281;29;20064;-67
2022/06/12 11:14:22;;;;;;;21.13;8.23;;;;;;;;;;4875422;29;20056;-67
2022/06/12 11:17:14;;;;;;;21.25;8.32;;;;;;;;;;4860341;29;20064;-67
2022/06/12 11:20:04;;;;;;;16.00;6.93;;;;;;;;;;4878975;29;20097;-67
2022/06/12 11:22:56;;;;;;;14.80;6.75;;;;;;;;;;4829272;29;20061;-67
2022/06/12 11:25:44;;;;;;;10.45;4.80;;;;;;;;;;4808129;29;20069;-67
2022/06/12 11:28:30;;;;;;;9.07;4.63;;;;;;;;;;4804956;29;20091;-67
2022/06/12 11:31:18;;;;;;;7.60;4.32;;;;;;;;;;4819991;29;20070;-67
2022/06/12 11:34:15;;;;;;;8.07;3.70;;;;;;;;;;4810036;29;20065;-68
2022/06/12 11:36:49;;;;;;;9.13;4.05;;;;;;;;;;4818927;29;20066;-67
2022/06/12 11:39:43;;;;;;;11.80;5.60;;;;;;;;;;4823056;29;20062;-68
2022/06/12 11:42:42;;;;;;;13.23;5.55;;;;;;;;;;4807820;29;20061;-68
2022/06/12 11:45:46;;;;;;;11.55;5.50;;;;;;;;;;4804608;29;20067;-69
2022/06/12 11:48:22;;;;;;;9.10;4.70;;;;;;;;;;4822904;29;20061;-69
2022/06/12 11:50:58;;;;;;;11.50;5.30;;;;;;;;;;4812020;29;20067;-69
2022/06/12 11:53:41;;;;;;;9.27;4.55;;;;;;;;;;4822525;29;20065;-69
2022/06/12 11:56:30;;;;;;;11.13;4.15;;;;;;;;;;4821344;29;20067;-71
2022/06/12 11:59:32;;;;;;;18.20;4.50;;;;;;;;;;4818942;29;20514;-68
2022/06/12 12:02:24;;;;;;;10.60;4.40;;;;;;;;;;4822374;29;20062;-68
2022/06/12 12:05:26;;;;;;;8.50;4.13;;;;;;;;;;4833050;29;20054;-69
2022/06/12 12:08:19;;;;;;;11.52;5.13;;;;;;;;;;4784827;29;20063;-69
2022/06/12 12:11:11;;;;;;;9.93;4.55;;;;;;;;;;4757037;30;20060;-70
2022/06/12 12:13:44;;;;;;;12.55;4.03;;;;;;;;;;4740775;30;20057;-71
2022/06/12 12:16:41;;;;;;;7.28;3.53;;;;;;;;;;4726628;30;20199;-71
2022/06/12 12:19:44;;;;;;;6.10;3.08;;;;;;;;;;4759934;30;20059;-69
2022/06/12 12:22:59;;;;;;;7.82;4.07;;;;;;;;;;4693492;30;20058;-72
2022/06/12 12:25:42;;;;;;;6.40;2.70;;;;;;;;;;4629573;30;20067;-70
2022/06/12 12:28:40;;;;;;;7.35;3.65;;;;;;;;;;4648643;30;20062;-67
2022/06/12 12:31:15;;;;;;;11.15;3.85;;;;;;;;;;4618019;31;20066;-68
2022/06/12 12:33:48;;;;;;;9.65;4.32;;;;;;;;;;4653095;30;20536;-70
2022/06/12 12:42:28;;;;;;;13.52;7.22;;;;;;;;;;4633536;30;20059;-70
2022/06/12 12:45:38;;;;;;;17.20;6.32;;;;;;;;;;4653767;30;20436;-69
2022/06/12 12:48:21;;;;;;;7.80;4.18;;;;;;;;;;4730037;30;20060;-73
2022/06/12 12:50:55;;;;;;;7.75;3.10;;;;;;;;;;4750079;30;20421;-72
2022/06/12 12:53:32;;;;;;;9.35;3.92;;;;;;;;;;4749171;30;20501;-72
2022/06/12 12:56:12;;;;;;;8.25;3.70;;;;;;;;;;4744677;30;20067;-75
2022/06/12 12:59:06;;;;;;;8.15;4.53;;;;;;;;;;4764584;30;20509;-71
2022/06/12 13:01:43;;;;;;;4.60;2.30;;;;;;;;;;4772693;29;20474;-70
2022/06/12 13:04:24;;;;;;;11.57;4.18;;;;;;;;;;4821941;29;20070;-70
2022/06/12 13:07:28;;;;;;;8.60;3.53;;;;;;;;;;4806413;29;20058;-70
2022/06/12 13:10:49;;;;;;;6.47;3.08;;;;;;;;;;4821661;29;20058;-71
2022/06/12 13:13:39;;;;;;;9.10;3.45;;;;;;;;;;4785462;30;20067;-71
2022/06/12 13:16:19;;;;;;;18.45;5.47;;;;;;;;;;4785347;30;20104;-70
2022/06/12 13:19:03;;;;;;;;;;;;;;;;;;4770114;30;20222;-67
2022/06/12 13:21:52;;;;;;;3.92;1.65;;;;;;;;;;4780934;30;19930;-68
2022/06/12 13:24:34;;;;;;;2.53;1.45;;;;;;;;;;4723652;30;20071;-67
2022/06/12 13:27:25;;;;;;;18.10;10.07;;;;;;;;;;4767406;30;20531;-69
2022/06/12 13:29:55;;;;;;;11.35;5.95;;;;;;;;;;4767217;30;20375;-68
2022/06/12 13:32:35;;;;;;;6.63;3.72;;;;;;;;;;4767384;30;20059;-69
2022/06/12 13:35:30;;;;;;;6.22;3.78;;;;;;;;;;4767263;30;20066;-70
2022/06/12 13:38:06;;;;;;;2.55;1.73;;;;;;;;;;4767473;30;20059;-70
2022/06/12 13:40:39;;;;;;;2.58;1.50;;;;;;;;;;4766681;30;20425;-68
2022/06/12 13:43:22;;;;;;;7.35;3.50;;;;;;;;;;4767078;30;20063;-70
2022/06/12 13:45:58;;;;;;;4.70;1.98;;;;;;;;;;4777219;29;20063;-69
2022/06/12 13:48:36;;;;;;;4.65;2.10;;;;;;;;;;4819306;29;20060;-68
2022/06/12 13:51:22;;;;;;;5.85;2.67;;;;;;;;;;4858145;29;20049;-68
2022/06/12 13:54:19;;;;;;;4.95;3.00;;;;;;;;;;4857477;29;20072;-68
2022/06/12 13:56:56;;;;;;;5.10;2.35;;;;;;;;;;4838942;29;20399;-70
2022/06/12 13:59:31;;;;;;;4.70;1.40;;;;;;;;;;4823798;29;20060;-68
2022/06/12 14:02:16;;;;;;;3.72;1.55;;;;;;;;;;4838944;29;20061;-69
2022/06/12 14:04:52;;;;;;;;;;;;;;;;;;4839836;29;20057;-69
2022/06/12 14:07:25;;;;;;;5.30;2.30;;;;;;;;;;4846999;29;19924;-69
2022/06/12 14:10:02;;;;;;;4.97;2.50;;;;;;;;;;4857539;29;20045;-69
2022/06/12 14:12:36;;;;;;;5.55;2.30;;;;;;;;;;4857350;29;20060;-70
2022/06/12 14:15:29;;;;;;;5.20;1.60;;;;;;;;;;4827686;29;20061;-69
2022/06/12 14:18:02;;;;;;;3.65;2.08;;;;;;;;;;4826683;29;20573;-67
2022/06/12 14:20:38;;;;;;;3.30;1.80;;;;;;;;;;4826712;29;20076;-69
2022/06/12 14:23:24;;;;;;;2.70;1.40;;;;;;;;;;4857458;29;20065;-68
2022/06/12 14:26:03;;;;;;;4.07;2.42;;;;;;;;;;4826944;29;20056;-69
2022/06/12 14:28:39;;;;;;;4.57;1.88;;;;;;;;;;4841916;29;20551;-68
2022/06/12 14:31:25;;;;;;;2.03;1.42;;;;;;;;;;4857263;29;20061;-69
2022/06/12 14:34:03;;;;;;;3.92;2.35;;;;;;;;;;4825364;29;20503;-68
2022/06/12 14:36:37;;;;;;;3.60;2.70;;;;;;;;;;4820580;29;20059;-69
2022/06/12 14:39:21;;;;;;;4.80;2.35;;;;;;;;;;4820592;29;20067;-70
2022/06/12 14:41:56;;;;;;;7.88;2.08;;;;;;;;;;4820856;29;20062;-71
2022/06/12 14:44:27;;;;;;;2.35;1.30;;;;;;;;;;4820331;29;20082;-68
2022/06/12 14:47:16;;;;;;;4.88;2.22;;;;;;;;;;4805661;29;20054;-70
2022/06/12 14:49:49;;;;;;;2.67;1.65;;;;;;;;;;4841242;29;20057;-69
2022/06/12 14:52:23;;;;;;;3.35;1.50;;;;;;;;;;4828171;29;20498;-70
2022/06/12 14:54:55;;;;;;;6.90;2.30;;;;;;;;;;4860764;29;20493;-70
2022/06/12 14:57:27;;;;;;;5.57;2.05;;;;;;;;;;4844899;29;20056;-69
2022/06/12 14:59:58;;;;;;;2.53;1.30;;;;;;;;;;4799917;29;20072;-69
2022/06/12 15:02:31;;;;;;;5.00;2.53;;;;;;;;;;4859562;29;20084;-70
2022/06/12 15:05:01;;;;;;;4.13;2.13;;;;;;;;;;4842337;29;20065;-69
2022/06/12 15:07:31;;;;;;;5.25;2.50;;;;;;;;;;4860372;29;20069;-67
2022/06/12 15:10:02;;;;;;;16.25;6.05;;;;;;;;;;4860425;29;20062;-70
2022/06/12 15:12:32;;;;;;;7.45;3.00;;;;;;;;;;4829458;29;20568;-68
2022/06/12 15:15:02;;;;;;;8.77;5.35;;;;;;;;;;4844714;29;20061;-69
2022/06/12 15:17:32;;;;;;;7.60;2.00;;;;;;;;;;4860596;29;20049;-70
2022/06/12 15:20:03;;;;;;;1.90;1.17;;;;;;;;;;4840326;29;20073;-69
2022/06/12 15:22:33;;;;;;;4.65;1.65;;;;;;;;;;4805251;29;20050;-70
2022/06/12 15:25:04;;;;;;;4.45;1.83;;;;;;;;;;4805110;29;20058;-69
2022/06/12 15:30:22;;;;;;;2.65;1.33;;;;;;;;;;4804965;29;20511;-70
2022/06/12 15:32:52;;;;;;;3.65;1.60;;;;;;;;;;4805354;29;20059;-69
2022/06/12 15:35:23;;;;;;;5.82;2.33;;;;;;;;;;4816495;29;20077;-70
2022/06/12 15:37:53;;;;;;;4.22;2.53;;;;;;;;;;4823224;29;20050;-69
2022/06/12 15:40:23;;;;;;;4.57;1.83;;;;;;;;;;4823046;29;20058;-68
2022/06/12 15:42:54;;;;;;;6.53;2.00;;;;;;;;;;4808198;29;20066;-70
2022/06/12 15:45:27;;;;;;;2.67;1.70;;;;;;;;;;4845772;29;20057;-69
2022/06/12 15:47:57;;;;;;;2.72;1.40;;;;;;;;;;4844418;29;20057;-70
2022/06/12 15:50:27;;;;;;;2.05;1.30;;;;;;;;;;4828954;29;20065;-68
2022/06/12 15:52:57;;;;;;;2.40;1.50;;;;;;;;;;4808081;29;20051;-69
2022/06/12 15:55:29;;;;;;;3.13;1.73;;;;;;;;;;4822988;29;20061;-69
2022/06/12 15:58:00;;;;;;;4.47;1.75;;;;;;;;;;4837610;29;20062;-70
2022/06/12 16:00:30;;;;;;;4.68;1.80;;;;;;;;;;4818825;29;20729;-68
2022/06/12 16:03:00;;;;;;;2.45;1.48;;;;;;;;;;4840820;29;20046;-67
2022/06/12 16:05:32;;;;;;;6.10;1.50;;;;;;;;;;4795541;29;20507;-69
2022/06/12 16:08:03;;;;;;;4.75;1.92;;;;;;;;;;4841180;29;20483;-69
2022/06/12 16:10:33;;;;;;;4.03;1.88;;;;;;;;;;4840616;29;20518;-68
2022/06/12 16:13:03;;;;;;;3.53;1.70;;;;;;;;;;4840973;29;20057;-69
2022/06/12 16:15:34;;;;;;;2.95;1.70;;;;;;;;;;4840943;29;20053;-69